Weather at Kårstø Heliport

Public forecast

Using degrees Celsius for public forecast. Weather courtesy of forecast.io.

Closest aviation weather report (METAR) to Kårstø Heliport

Closest report is Haugesund Airport, Karmøy, 10.5 nm (19.5 km) WNW. Retrieved 2021/10/22 02:20 UTC (0 seconds ago):

ENHD 220220Z AUTO 30017KT 9999 FEW020/// 05/01 Q0992

Closest aviation forecast (TAF) to Kårstø Heliport

Closest forecast is Stavanger Airport, Sola, 24.4 nm (45.3 km) S. Retrieved 2021-10-22 00:57 UTC (1 hour ago):

TAF ENZV 212300Z 2200/2224 34020KT 9999 -SHRA FEW020TCU BKN030 TEMPO 2200/2212 34025G35KT 4000 SHRAGS BKN014 SCT020CB TEMPO 2212/2221 33030G40KT